Schneifelwetter: Wetterstation Hallschlag, 537 m . NN
Wetterdaten: Dienstag, 04.09.2012
Datum Zeit Temp. A. Feuchte A. Luftdruck Regen Wind Richtung Richtung Sonnenschein T Regen Taupunkt Windchill
04.09.2012 00:14 9,2 C 92 % 1023 hPa 0,0 l/m 0,0 km/h (0 Bft) N-NO 30 0 min 0 min 8,0 C 9,2 C
04.09.2012 00:29 8,9 C 92 % 1023 hPa 0,0 l/m 0,0 km/h (0 Bft) N-NO 30 0 min 0 min 7,7 C 8,9 C
04.09.2012 00:44 8,7 C 94 % 1023 hPa 0,0 l/m 0,0 km/h (0 Bft) N-NO 30 0 min 0 min 7,8 C 8,7 C
04.09.2012 00:59 8,8 C 94 % 1023 hPa 0,0 l/m 0,0 km/h (0 Bft) N-NO 30 0 min 0 min 7,9 C 8,8 C
04.09.2012 01:14 8,4 C 94 % 1023 hPa 0,0 l/m 0,0 km/h (0 Bft) N-NO 30 0 min 0 min 7,5 C 8,4 C
04.09.2012 01:29 8,7 C 95 % 1023 hPa 0,0 l/m 0,0 km/h (0 Bft) N-NO 30 0 min 0 min 7,9 C 8,7 C
04.09.2012 01:44 8,3 C 94 % 1023 hPa 0,0 l/m 0,0 km/h (0 Bft) N-NO 30 0 min 0 min 7,4 C 8,3 C
04.09.2012 01:59 8,0 C 94 % 1022 hPa 0,0 l/m 0,0 km/h (0 Bft) N-NO 30 0 min 0 min 7,1 C 8,0 C
04.09.2012 02:14 8,0 C 94 % 1022 hPa 0,0 l/m 0,0 km/h (0 Bft) N-NO 30 0 min 0 min 7,1 C 8,0 C
04.09.2012 02:29 7,5 C 94 % 1022 hPa 0,0 l/m 0,0 km/h (0 Bft) N-NO 30 0 min 0 min 6,6 C 7,5 C
04.09.2012 02:44 7,4 C 95 % 1022 hPa 0,0 l/m 0,0 km/h (0 Bft) N-NO 30 0 min 0 min 6,7 C 7,4 C
04.09.2012 02:59 7,4 C 95 % 1022 hPa 0,0 l/m 0,0 km/h (0 Bft) N-NO 30 0 min 0 min 6,7 C 7,4 C
04.09.2012 03:14 7,3 C 95 % 1022 hPa 0,0 l/m 0,0 km/h (0 Bft) N-NO 30 0 min 0 min 6,6 C 7,3 C
04.09.2012 03:29 6,9 C 95 % 1022 hPa 0,0 l/m 0,0 km/h (0 Bft) N-NO 30 0 min 0 min 6,2 C 6,9 C
04.09.2012 03:44 6,6 C 95 % 1022 hPa 0,0 l/m 0,0 km/h (0 Bft) N-NO 30 0 min 0 min 5,9 C 6,6 C
04.09.2012 03:59 6,4 C 95 % 1022 hPa 0,0 l/m 0,0 km/h (0 Bft) N-NO 30 0 min 0 min 5,7 C 6,4 C
04.09.2012 04:14 6,4 C 95 % 1022 hPa 0,0 l/m 0,0 km/h (0 Bft) N-NO 30 0 min 0 min 5,7 C 6,4 C
04.09.2012 04:29 6,2 C 95 % 1022 hPa 0,0 l/m 0,0 km/h (0 Bft) N-NO 30 0 min 0 min 5,5 C 6,2 C
04.09.2012 04:44 6,1 C 95 % 1022 hPa 0,0 l/m 0,0 km/h (0 Bft) N-NO 30 0 min 0 min 5,4 C 6,1 C
04.09.2012 04:59 5,9 C 95 % 1022 hPa 0,0 l/m 0,0 km/h (0 Bft) N-NO 30 0 min 0 min 5,2 C 5,9 C
04.09.2012 05:14 5,6 C 95 % 1022 hPa 0,0 l/m 0,0 km/h (0 Bft) N-NO 30 0 min 0 min 4,9 C 5,6 C
04.09.2012 05:29 5,5 C 95 % 1022 hPa 0,0 l/m 0,0 km/h (0 Bft) N-NO 30 0 min 0 min 4,8 C 5,5 C
04.09.2012 05:44 5,2 C 95 % 1022 hPa 0,0 l/m 0,0 km/h (0 Bft) N-NO 30 0 min 0 min 4,5 C 5,2 C
04.09.2012 05:59 5,2 C 96 % 1022 hPa 0,0 l/m 0,0 km/h (0 Bft) N-NO 30 0 min 0 min 4,6 C 5,2 C
04.09.2012 06:14 4,9 C 95 % 1022 hPa 0,0 l/m 0,0 km/h (0 Bft) N-NO 30 0 min 0 min 4,2 C 4,9 C
04.09.2012 06:29 4,7 C 95 % 1021 hPa 0,0 l/m 0,0 km/h (0 Bft) N-NO 30 0 min 0 min 4,0 C 4,7 C
04.09.2012 06:44 4,6 C 96 % 1021 hPa 0,0 l/m 0,0 km/h (0 Bft) N-NO 30 0 min 0 min 4,0 C 4,6 C
04.09.2012 06:59 4,6 C 96 % 1021 hPa 0,0 l/m 0,0 km/h (0 Bft) N-NO 30 0 min 0 min 4,0 C 4,6 C
04.09.2012 07:14 4,6 C 96 % 1022 hPa 0,0 l/m 0,0 km/h (0 Bft) N-NO 30 0 min 0 min 4,0 C 4,6 C
04.09.2012 07:29 4,8 C 96 % 1022 hPa 0,0 l/m 0,0 km/h (0 Bft) N-NO 30 0 min 0 min 4,2 C 4,8 C
04.09.2012 07:44 5,1 C 96 % 1022 hPa 0,0 l/m 0,0 km/h (0 Bft) N-NO 30 0 min 0 min 4,5 C 5,1 C
04.09.2012 07:59 5,6 C 96 % 1022 hPa 0,0 l/m 0,0 km/h (0 Bft) N-NO 30 0 min 0 min 5,0 C 5,6 C
04.09.2012 08:13 6,0 C 96 % 1022 hPa 0,0 l/m 0,0 km/h (0 Bft) N-NO 30 0 min 0 min 5,4 C 6,0 C
04.09.2012 08:29 6,7 C 96 % 1022 hPa 0,0 l/m 0,0 km/h (0 Bft) N 5 0 min 0 min 6,1 C 6,7 C
04.09.2012 08:44 7,5 C 97 % 1022 hPa 0,0 l/m 0,0 km/h (0 Bft) N 5 0 min 0 min 7,1 C 7,5 C
04.09.2012 08:59 8,5 C 97 % 1022 hPa 0,0 l/m 0,0 km/h (0 Bft) N 5 0 min 0 min 8,1 C 8,5 C
04.09.2012 09:14 10,6 C 98 % 1022 hPa 0,0 l/m 0,0 km/h (0 Bft) N 5 0 min 0 min 10,3 C 10,6 C
04.09.2012 09:29 12,0 C 97 % 1022 hPa 0,0 l/m 0,0 km/h (0 Bft) N 5 0 min 0 min 11,5 C 12,0 C
04.09.2012 09:43 13,3 C 97 % 1022 hPa 0,0 l/m 0,3 km/h (0 Bft) NO22.5 35 0 min 0 min 12,8 C 13,3 C
04.09.2012 09:59 14,6 C 96 % 1022 hPa 0,0 l/m 8,5 km/h (2 Bft) O67.5 80 0 min 0 min 14,0 C 13,4 C
04.09.2012 10:14 15,7 C 89 % 1022 hPa 0,0 l/m 16,7 km/h (3 Bft) O45 95 0 min 0 min 13,9 C 11,5 C
04.09.2012 10:29 16,4 C 81 % 1022 hPa 0,0 l/m 17,3 km/h (3 Bft) O67.5 80 0 min 0 min 13,1 C 12,2 C
04.09.2012 10:44 17,2 C 79 % 1022 hPa 0,0 l/m 18,3 km/h (3 Bft) O67.5 95 0 min 0 min 13,5 C 13,0 C
04.09.2012 10:59 17,8 C 76 % 1022 hPa 0,0 l/m 19,4 km/h (3 Bft) NO67.5 55 0 min 0 min 13,5 C 13,5 C
04.09.2012 11:13 18,2 C 75 % 1022 hPa 0,0 l/m 13,8 km/h (3 Bft) O67.5 90 0 min 0 min 13,7 C 15,4 C
04.09.2012 11:29 18,5 C 73 % 1022 hPa 0,0 l/m 16,6 km/h (3 Bft) O67.5 80 0 min 0 min 13,6 C 15,0 C
04.09.2012 11:44 18,8 C 72 % 1022 hPa 0,0 l/m 22,0 km/h (4 Bft) O67.5 90 0 min 0 min 13,6 C 14,3 C
04.09.2012 11:59 18,9 C 70 % 1022 hPa 0,0 l/m 16,7 km/h (3 Bft) O67.5 90 0 min 0 min 13,3 C 15,5 C
04.09.2012 12:14 19,2 C 70 % 1021 hPa 0,0 l/m 15,6 km/h (3 Bft) O67.5 95 0 min 0 min 13,6 C 16,1 C
04.09.2012 12:29 19,3 C 68 % 1022 hPa 0,0 l/m 20,0 km/h (4 Bft) O67.5 80 0 min 0 min 13,2 C 15,3 C
04.09.2012 12:44 19,3 C 67 % 1022 hPa 0,0 l/m 15,9 km/h (3 Bft) O-NO45 65 0 min 0 min 13,0 C 16,2 C
04.09.2012 12:59 19,3 C 66 % 1021 hPa 0,0 l/m 19,1 km/h (3 Bft) O-NO67.5 70 0 min 0 min 12,8 C 15,5 C
04.09.2012 13:14 19,5 C 68 % 1021 hPa 0,0 l/m 14,3 km/h (3 Bft) O-NO45 75 0 min 0 min 13,4 C 16,8 C
04.09.2012 13:29 19,8 C 68 % 1021 hPa 0,0 l/m 12,7 km/h (3 Bft) SO67.5 125 0 min 0 min 13,7 C 17,6 C
04.09.2012 13:44 19,8 C 66 % 1021 hPa 0,0 l/m 20,8 km/h (4 Bft) NO67.5 55 0 min 0 min 13,3 C 15,8 C
04.09.2012 13:59 20,0 C 66 % 1021 hPa 0,0 l/m 12,0 km/h (2 Bft) O-NO67.5 60 0 min 0 min 13,4 C 18,0 C
04.09.2012 14:14 20,4 C 66 % 1021 hPa 0,0 l/m 12,9 km/h (3 Bft) O-SO45 105 0 min 0 min 13,8 C 18,2 C
04.09.2012 14:29 20,5 C 64 % 1021 hPa 0,0 l/m 10,1 km/h (2 Bft) O45 80 0 min 0 min 13,5 C 19,2 C
04.09.2012 14:44 20,4 C 62 % 1021 hPa 0,0 l/m 16,8 km/h (3 Bft) NO67.5 40 0 min 0 min 12,9 C 17,3 C
04.09.2012 14:59 20,4 C 63 % 1021 hPa 0,0 l/m 12,3 km/h (3 Bft) N-NO45 20 0 min 0 min 13,1 C 18,4 C
04.09.2012 15:14 20,5 C 62 % 1021 hPa 0,0 l/m 17,8 km/h (3 Bft) N-NO45 25 0 min 0 min 13,0 C 17,3 C
04.09.2012 15:28 20,5 C 62 % 1021 hPa 0,0 l/m 15,6 km/h (3 Bft) N-NO22.5 25 0 min 0 min 13,0 C 17,7 C
04.09.2012 15:44 20,5 C 62 % 1021 hPa 0,0 l/m 19,1 km/h (3 Bft) N-NO45 25 16 min 0 min 13,0 C 17,0 C
04.09.2012 15:59 20,5 C 61 % 1021 hPa 0,0 l/m 14,8 km/h (3 Bft) N-NO22.5 15 15 min 0 min 12,7 C 17,9 C
04.09.2012 16:14 20,6 C 62 % 1021 hPa 0,0 l/m 14,8 km/h (3 Bft) N-NO45 25 15 min 0 min 13,1 C 18,0 C
04.09.2012 16:29 20,6 C 61 % 1020 hPa 0,0 l/m 16,9 km/h (3 Bft) NO45 35 15 min 0 min 12,8 C 17,6 C
04.09.2012 16:44 20,6 C 61 % 1020 hPa 0,0 l/m 15,3 km/h (3 Bft) N-NO22.5 25 15 min 0 min 12,8 C 17,9 C
04.09.2012 16:58 20,6 C 60 % 1020 hPa 0,0 l/m 15,6 km/h (3 Bft) NO22.5 35 14 min 0 min 12,6 C 17,8 C
04.09.2012 17:14 20,6 C 60 % 1020 hPa 0,0 l/m 13,6 km/h (3 Bft) N-NO22.5 20 16 min 0 min 12,6 C 18,3 C
04.09.2012 17:29 20,8 C 59 % 1020 hPa 0,0 l/m 18,8 km/h (3 Bft) N-NO45 30 15 min 0 min 12,5 C 17,5 C
04.09.2012 17:44 20,8 C 60 % 1020 hPa 0,0 l/m 16,0 km/h (3 Bft) N-NO22.5 30 15 min 0 min 12,7 C 18,0 C
04.09.2012 17:59 21,0 C 60 % 1020 hPa 0,0 l/m 15,2 km/h (3 Bft) NO45 40 15 min 0 min 12,9 C 18,4 C
04.09.2012 18:14 20,8 C 61 % 1020 hPa 0,0 l/m 15,3 km/h (3 Bft) N-NO22.5 30 15 min 0 min 13,0 C 18,2 C
04.09.2012 18:29 20,5 C 61 % 1020 hPa 0,0 l/m 16,3 km/h (3 Bft) N-NO45 25 15 min 0 min 12,7 C 17,6 C
04.09.2012 18:44 20,1 C 61 % 1020 hPa 0,0 l/m 16,3 km/h (3 Bft) N-NO22.5 30 15 min 0 min 12,3 C 17,1 C
04.09.2012 18:59 19,9 C 62 % 1020 hPa 0,0 l/m 15,3 km/h (3 Bft) N-NO67.5 30 15 min 0 min 12,4 C 17,1 C
04.09.2012 19:14 19,6 C 63 % 1020 hPa 0,0 l/m 10,0 km/h (2 Bft) N-NO 25 15 min 0 min 12,4 C 18,2 C
04.09.2012 19:29 19,2 C 63 % 1020 hPa 0,0 l/m 15,4 km/h (3 Bft) N-NO22.5 20 15 min 0 min 12,0 C 16,2 C
04.09.2012 19:43 18,9 C 65 % 1020 hPa 0,0 l/m 10,5 km/h (2 Bft) N-NO 20 14 min 0 min 12,2 C 17,3 C
04.09.2012 19:59 18,2 C 68 % 1020 hPa 0,0 l/m 9,2 km/h (2 Bft) NO22.5 40 16 min 0 min 12,2 C 17,0 C
04.09.2012 20:14 17,5 C 69 % 1020 hPa 0,0 l/m 6,4 km/h (2 Bft) N-NO 15 0 min 0 min 11,7 C 17,5 C
04.09.2012 20:29 16,8 C 70 % 1020 hPa 0,0 l/m 0,0 km/h (0 Bft) N-NO 15 0 min 0 min 11,3 C 16,8 C
04.09.2012 20:44 16,0 C 72 % 1020 hPa 0,0 l/m 0,0 km/h (0 Bft) N-NO 15 0 min 0 min 11,0 C 16,0 C
04.09.2012 20:59 15,5 C 73 % 1020 hPa 0,0 l/m 0,0 km/h (0 Bft) N-NO 15 0 min 0 min 10,7 C 15,5 C
04.09.2012 21:14 14,7 C 74 % 1020 hPa 0,0 l/m 0,0 km/h (0 Bft) N-NO 15 0 min 0 min 10,1 C 14,7 C
04.09.2012 21:29 13,7 C 75 % 1020 hPa 0,0 l/m 0,0 km/h (0 Bft) N-NO 15 0 min 0 min 9,3 C 13,7 C
04.09.2012 21:44 12,8 C 77 % 1021 hPa 0,0 l/m 0,0 km/h (0 Bft) N-NO 15 0 min 0 min 8,9 C 12,8 C
04.09.2012 21:59 12,1 C 80 % 1021 hPa 0,0 l/m 0,0 km/h (0 Bft) N-NO 15 0 min 0 min 8,8 C 12,1 C
04.09.2012 22:14 11,7 C 82 % 1021 hPa 0,0 l/m 0,0 km/h (0 Bft) N-NO 15 0 min 0 min 8,7 C 11,7 C
04.09.2012 22:29 11,2 C 82 % 1021 hPa 0,0 l/m 0,0 km/h (0 Bft) N-NO 15 0 min 0 min 8,2 C 11,2 C
04.09.2012 22:44 10,8 C 83 % 1020 hPa 0,0 l/m 0,0 km/h (0 Bft) N-NO 15 0 min 0 min 8,0 C 10,8 C
04.09.2012 22:59 10,5 C 83 % 1020 hPa 0,0 l/m 0,0 km/h (0 Bft) N-NO 15 0 min 0 min 7,7 C 10,5 C
04.09.2012 23:14 10,2 C 84 % 1020 hPa 0,0 l/m 0,0 km/h (0 Bft) N-NO 15 0 min 0 min 7,6 C 10,2 C
04.09.2012 23:29 10,0 C 85 % 1020 hPa 0,0 l/m 0,0 km/h (0 Bft) N-NO 15 0 min 0 min 7,6 C 10,0 C
04.09.2012 23:44 9,7 C 86 % 1021 hPa 0,0 l/m 0,0 km/h (0 Bft) N-NO 15 0 min 0 min 7,5 C 9,7 C
04.09.2012 23:59 9,6 C 87 % 1021 hPa 0,0 l/m 0,0 km/h (0 Bft) N-NO 15 0 min 0 min 7,5 C 9,6 C
_ Min-Zeit 06:44 17:29 16:29 - 00:14 - - - - 06:29 06:44
Minimum _ 4,6 C 59 % 1020 hPa - 0,0 km/h (0 Bft) - - - - 4,0 C 4,6 C
_ Max-Zeit 17:59 09:14 00:14 00:14 11:44 - - 15:44 00:14 09:59 14:29
Maximum _ 21,0 C 98 % 1023 hPa 0,0 l/m 22,0 km/h
O (4 Bft)
- - 16 min 0 min 14,0 C 19,2 C
Durchschnitt _ 13,3 C 80 % 1021 hPa #0,0 l/m 6,7 km/h (2 Bft) N-NO - #4:31 h #0 min. 9,7 C 12,1 C